< < Back
Terminal Aerodrome Forecast


Current Version              Previous Versions:   1  2  3  4  5  6  7  8  9  

Terminal Aerodrome Forecast

633
FTUS42 KTAE 012159 AAA
TAFVLD
TAF AMD
KVLD 012159Z 0122/0218 VRB05KT P6SM SCT040
      TEMPO 0122/0124 VRB10G18KT 5SM -TSRA BKN050CB
     FM020000 VRB03KT P6SM SCT250
     FM021700 26010KT P6SM VCTS SCT040CB=

Latest METAR

468
SAUS70 KWBC 021500 RRK
MTRVLD
METAR KVLD 021453Z AUTO VRB06KT 10SM FEW030 30/22 A3011 RMK AO2 SLP201
T03000222 53008 TSNO


USA.gov is the U.S. government's official web portal to all federal, state and local government web resources and services.